Edinburg, TX

3:55 PM CST on February 23, 2017 (GMT -0600)
Edinburg

Weather History for KEBG - March, 2014

Change the Weather History Date:

Saturday, March 8, 2014

  Actual Average (KMFE) Record (KMFE)
Temperature  
Mean Temperature 72 °F -  
Max Temperature 81 °F 76 °F 96 °F (2011)
Min Temperature 64 °F 57 °F 36 °F (1996)
Cooling Degree Days 8    
Growing Degree Days 22 (Base 50)    
Moisture  
Dew Point 63 °F    
Average Humidity 76    
Maximum Humidity 89    
Minimum Humidity 54    
Precipitation  
Precipitation 0.00 in - - ()
Sea Level Pressure  
Sea Level Pressure 29.92 in    
Wind  
Wind Speed 9 mph (SE)    
Max Wind Speed 18 mph    
Max Gust Speed 23 mph    
Visibility 10 miles    
Events Rain , Thunderstorm    
Averages and records for this station are not official NWS values.
T = Trace of Precipitation, MM = Missing Value Source: NWS Daily Summary

Daily Weather History Graph

Daily Weather History Graph

Search for Another Location

Airport or City:

Trip Planner

Search our weather history database for the weather conditions in past years. The results will help you decide how hot, cold, wet, or windy it might be!

Date:

Astronomy

Mar. 08, 2014 Rise Set
Actual Time 6:49 AM CST 6:37 PM CST
Civil Twilight 6:26 AM CST 7:00 PM CST
Nautical Twilight 5:59 AM CST 7:27 PM CST
Astronomical Twilight 5:32 AM CST 7:54 PM CST
Moon 12:06 PM CST (3/8) 1:02 AM CST (3/8)
Length of Visible Light 12h 34m
Length of Day
11h 48m
First Quarter, 52% of the Moon is Illuminated
Mar 8
First Quarter
Mar 16
Full
Mar 23
Last Quarter
Mar 30
New
Apr 7
First Quarter

Hourly Weather History & Observations

Time (CST) Temp. Heat Index Dew Point Humidity Pressure Visibility Wind Dir Wind Speed Gust Speed Precip Events Conditions
12:15 AM 66.2 °F - 59.0 °F 78% 29.89 in 10.0 mi SSE 8.1 mph - N/A   Overcast
12:35 AM 66.2 °F - 59.2 °F 78% 29.90 in 10.0 mi SE 8.1 mph - N/A   Mostly Cloudy
12:55 AM 66.2 °F - 59.4 °F 79% 29.89 in 10.0 mi SE 6.9 mph - N/A   Overcast
1:15 AM 66.2 °F - 59.5 °F 79% 29.89 in 10.0 mi SE 6.9 mph - N/A   Overcast
1:35 AM 66.4 °F - 59.9 °F 80% 29.89 in 10.0 mi SE 6.9 mph - N/A   Overcast
1:55 AM 66.6 °F - 59.9 °F 79% 29.88 in 10.0 mi SE 6.9 mph - N/A   Overcast
2:10 AM 66.7 °F - 59.9 °F 79% 29.88 in 10.0 mi ESE 6.9 mph - N/A   Overcast
2:35 AM 66.4 °F - 59.9 °F 80% 29.87 in 10.0 mi ESE 6.9 mph - N/A   Overcast
2:55 AM 66.2 °F - 59.9 °F 80% 29.87 in 10.0 mi ESE 5.8 mph - N/A   Overcast
3:15 AM 65.3 °F - 59.4 °F 81% 29.87 in 10.0 mi ESE 4.6 mph - N/A   Mostly Cloudy
3:35 AM 65.3 °F - 59.9 °F 83% 29.87 in 10.0 mi ESE 4.6 mph - N/A   Overcast
3:55 AM 65.3 °F - 59.5 °F 82% 29.87 in 10.0 mi East 4.6 mph - N/A   Overcast
4:15 AM 64.9 °F - 59.5 °F 83% 29.86 in 10.0 mi ESE 5.8 mph - N/A   Overcast
4:35 AM 64.9 °F - 59.4 °F 82% 29.86 in 10.0 mi ESE 6.9 mph - N/A   Overcast
4:55 AM 64.8 °F - 59.5 °F 83% 29.87 in 10.0 mi ESE 4.6 mph - N/A   Overcast
5:15 AM 64.8 °F - 59.9 °F 84% 29.87 in 10.0 mi ESE 4.6 mph - N/A   Overcast
5:35 AM 65.3 °F - 60.1 °F 83% 29.87 in 10.0 mi ESE 5.8 mph - N/A   Overcast
5:55 AM 65.5 °F - 60.3 °F 83% 29.87 in 10.0 mi East 5.8 mph - N/A   Overcast
6:15 AM 65.7 °F - 60.8 °F 84% 29.87 in 10.0 mi ESE 8.1 mph - N/A   Overcast
6:35 AM 65.8 °F - 60.8 °F 84% 29.88 in 10.0 mi ESE 6.9 mph - N/A   Overcast
6:50 AM 65.3 °F - 60.6 °F 85% 29.88 in 10.0 mi ESE 6.9 mph - N/A   Mostly Cloudy
7:15 AM 65.8 °F - 61.7 °F 86% 29.89 in 10.0 mi ESE 4.6 mph - N/A   Mostly Cloudy
7:35 AM 66.6 °F - 62.2 °F 86% 29.90 in 10.0 mi ESE 4.6 mph - N/A   Overcast
7:55 AM 67.1 °F - 62.6 °F 85% 29.91 in 10.0 mi SE 4.6 mph - N/A   Overcast
8:15 AM 68.2 °F - 63.5 °F 85% 29.91 in 7.0 mi SE 6.9 mph - N/A   Overcast
8:35 AM 69.1 °F - 64.0 °F 84% 29.92 in 7.0 mi SE 6.9 mph - N/A   Overcast
8:55 AM 70.0 °F - 64.4 °F 82% 29.93 in 7.0 mi SE 8.1 mph - N/A   Overcast
9:15 AM 71.8 °F - 65.3 °F 80% 29.93 in 10.0 mi SSE 10.4 mph - N/A   Overcast
9:35 AM 72.7 °F - 65.3 °F 78% 29.93 in 10.0 mi SSE 8.1 mph - N/A   Overcast
9:55 AM 73.9 °F - 65.3 °F 74% 29.93 in 10.0 mi SSE 15.0 mph 19.6 mph N/A   Overcast
10:15 AM 74.8 °F - 65.5 °F 73% 29.93 in 10.0 mi SSE 13.8 mph - N/A   Overcast
10:35 AM 75.9 °F - 65.3 °F 70% 29.93 in 10.0 mi SSE 15.0 mph 20.7 mph N/A   Overcast
10:55 AM 75.4 °F - 65.3 °F 71% 29.93 in 10.0 mi SSE 13.8 mph 18.4 mph N/A   Overcast
11:15 AM 75.4 °F - 65.3 °F 71% 29.93 in 10.0 mi SSE 15.0 mph - N/A   Overcast
11:30 AM 76.1 °F - 65.1 °F 69% 29.93 in 10.0 mi SSE 12.7 mph 17.3 mph N/A   Overcast
11:55 AM 78.8 °F - 65.1 °F 63% 29.92 in 10.0 mi SSE 13.8 mph - N/A   Overcast
12:15 PM 80.4 °F 82.2 °F 64.8 °F 59% 29.90 in 10.0 mi South 17.3 mph 20.7 mph N/A   Overcast
12:35 PM 80.8 °F 82.4 °F 64.2 °F 57% 29.90 in 10.0 mi South 15.0 mph 20.7 mph N/A   Overcast
12:55 PM 81.9 °F 83.2 °F 63.7 °F 54% 29.89 in 10.0 mi South 16.1 mph 19.6 mph N/A   Mostly Cloudy
1:15 PM 81.0 °F 82.6 °F 64.4 °F 57% 29.89 in 10.0 mi SE 13.8 mph 20.7 mph N/A   Overcast
1:35 PM 79.9 °F - 64.4 °F 59% 29.89 in 10.0 mi SSE 9.2 mph 17.3 mph N/A   Overcast
1:55 PM 81.3 °F 82.9 °F 64.4 °F 56% 29.88 in 10.0 mi SSE 10.4 mph - N/A   Overcast
2:15 PM 80.4 °F 82.1 °F 64.4 °F 58% 29.88 in 10.0 mi SSE 12.7 mph - N/A   Overcast
2:35 PM 80.4 °F 82.2 °F 64.8 °F 59% 29.88 in 10.0 mi SSE 9.2 mph - N/A   Overcast
2:55 PM 80.6 °F 82.3 °F 64.8 °F 58% 29.88 in 10.0 mi SSE 10.4 mph - N/A   Overcast
3:15 PM 80.6 °F 82.3 °F 64.4 °F 58% 29.87 in 10.0 mi SE 10.4 mph - N/A   Overcast
3:35 PM 80.4 °F 82.3 °F 65.3 °F 60% 29.88 in 10.0 mi SE 13.8 mph - N/A   Overcast
3:55 PM 80.1 °F 81.9 °F 64.9 °F 60% 29.89 in 10.0 mi SE 13.8 mph - N/A   Overcast
4:15 PM 80.4 °F 82.3 °F 65.5 °F 60% 29.89 in 10.0 mi ESE 16.1 mph 23.0 mph N/A   Overcast
4:35 PM 79.9 °F - 65.8 °F 62% 29.89 in 10.0 mi East 18.4 mph 23.0 mph N/A   Mostly Cloudy
4:55 PM 76.6 °F - 65.8 °F 69% 29.91 in 10.0 mi ESE 13.8 mph - N/A   Mostly Cloudy
5:15 PM 76.1 °F - 65.8 °F 70% 29.92 in 10.0 mi East 15.0 mph - N/A   Scattered Clouds
5:35 PM 74.8 °F - 65.5 °F 73% 29.93 in 10.0 mi ESE 16.1 mph - N/A   Scattered Clouds
5:55 PM 74.7 °F - 65.7 °F 73% 29.93 in 10.0 mi ESE 13.8 mph - N/A   Mostly Cloudy
6:15 PM 73.9 °F - 65.7 °F 75% 29.94 in 10.0 mi ESE 10.4 mph - N/A   Mostly Cloudy
6:35 PM 73.4 °F - 65.5 °F 76% 29.96 in 10.0 mi East 13.8 mph - N/A   Overcast
6:55 PM 72.7 °F - 65.3 °F 78% 29.97 in 10.0 mi ESE 13.8 mph - N/A   Overcast
7:15 PM 72.5 °F - 65.3 °F 78% 29.98 in 10.0 mi East 12.7 mph - N/A   Overcast
7:35 PM 72.0 °F - 65.1 °F 79% 29.99 in 10.0 mi East 10.4 mph - N/A   Overcast
7:55 PM 71.2 °F - 64.9 °F 80% 30.00 in 10.0 mi East 12.7 mph - N/A   Overcast
8:15 PM 70.7 °F - 65.3 °F 83% 30.00 in 10.0 mi East 12.7 mph - N/A   Mostly Cloudy
8:35 PM 70.7 °F - 65.3 °F 83% 30.01 in 10.0 mi ESE 10.4 mph - N/A   Mostly Cloudy
8:55 PM 70.2 °F - 65.3 °F 85% 30.01 in 10.0 mi ESE 8.1 mph - N/A   Scattered Clouds
9:15 PM 70.2 °F - 65.3 °F 85% 30.02 in 10.0 mi ESE 8.1 mph - N/A   Scattered Clouds
9:35 PM 70.0 °F - 65.3 °F 85% 30.03 in 10.0 mi East 4.6 mph - N/A Thunderstorm Scattered Clouds
9:55 PM 69.8 °F - 65.3 °F 86% 30.04 in 10.0 mi Calm Calm - N/A   Mostly Cloudy
10:15 PM 69.8 °F - 65.5 °F 86% 30.05 in 10.0 mi Calm Calm - N/A   Overcast
10:35 PM 69.8 °F - 65.5 °F 86% 30.05 in 10.0 mi ENE 4.6 mph - N/A Rain , Thunderstorm Light Thunderstorms and Rain
10:55 PM 69.6 °F - 65.7 °F 87% 30.05 in 7.0 mi ENE 3.5 mph - N/A Rain Light Rain
11:15 PM 69.3 °F - 65.5 °F 88% 30.06 in 7.0 mi ESE 4.6 mph - N/A   Overcast
11:35 PM 68.9 °F - 65.5 °F 89% 30.05 in 7.0 mi East 4.6 mph - N/A   Mostly Cloudy
11:55 PM 68.9 °F - 65.5 °F 89% 30.06 in 7.0 mi North 5.8 mph - N/A Rain Rain